Time;durP1;ratioP1;P1;durP2;ratioP2;P2;SDS_P1;SDS_P2;PMS_P1;PMS_P2;Temp;Humidity;BMP_temperature;BMP_pressure;BME280_temperature;BME280_humidity;BME280_pressure;Samples;Min_cycle;Max_cycle;Signal;HPM_P1;HPM_P2
2022/08/02 00:00:53;;;;;;;1.70;1.60;;;20.00;99.90;;;;;;5074378;28;20555;-75
2022/08/02 00:03:19;;;;;;;1.60;1.50;;;19.70;99.90;;;;;;5074584;28;20618;-75
2022/08/02 00:05:46;;;;;;;1.73;1.63;;;19.70;99.90;;;;;;5072717;28;20646;-75
2022/08/02 00:08:12;;;;;;;1.80;1.70;;;19.70;99.90;;;;;;5071927;28;20691;-75
2022/08/02 00:10:39;;;;;;;1.60;1.50;;;19.70;99.90;;;;;;5074668;28;20578;-75
2022/08/02 00:13:05;;;;;;;2.40;1.50;;;19.70;99.90;;;;;;5072936;28;20610;-75
2022/08/02 00:15:31;;;;;;;2.07;1.97;;;19.70;99.90;;;;;;5074156;28;20578;-75
2022/08/02 00:17:58;;;;;;;1.63;1.53;;;19.80;99.90;;;;;;5074153;28;20628;-75
2022/08/02 00:20:24;;;;;;;1.57;1.47;;;19.90;99.90;;;;;;5073561;28;20672;-75
2022/08/02 00:22:51;;;;;;;1.63;1.53;;;19.90;99.90;;;;;;5073774;28;20613;-75
2022/08/02 00:25:17;;;;;;;1.63;1.50;;;20.00;99.90;;;;;;5073901;28;20627;-75
2022/08/02 00:27:43;;;;;;;2.03;1.40;;;20.00;99.90;;;;;;5073911;28;20905;-76
2022/08/02 00:30:10;;;;;;;4.43;1.73;;;20.10;99.90;;;;;;5073763;28;20627;-75
2022/08/02 00:32:37;;;;;;;1.70;1.60;;;20.00;99.90;;;;;;5072789;28;20579;-75
2022/08/02 00:35:04;;;;;;;3.63;1.60;;;20.10;99.90;;;;;;5072497;28;20614;-75
2022/08/02 00:37:30;;;;;;;1.57;1.47;;;20.00;99.90;;;;;;5073341;28;21192;-75
2022/08/02 00:39:57;;;;;;;1.40;1.30;;;20.00;99.90;;;;;;5073491;28;21024;-75
2022/08/02 00:42:23;;;;;;;5.70;1.83;;;19.90;99.90;;;;;;5073908;28;20966;-75
2022/08/02 00:44:50;;;;;;;2.03;1.43;;;20.00;99.90;;;;;;5073899;28;20639;-75
2022/08/02 00:47:16;;;;;;;1.73;1.63;;;20.00;99.90;;;;;;5072428;28;20917;-75
2022/08/02 00:49:42;;;;;;;2.30;1.40;;;20.00;99.90;;;;;;5073401;28;20626;-75
2022/08/02 00:52:09;;;;;;;3.23;1.83;;;20.10;99.90;;;;;;5073662;28;20586;-75
2022/08/02 00:54:36;;;;;;;1.63;1.53;;;20.10;99.90;;;;;;5073631;28;20579;-75
2022/08/02 00:57:02;;;;;;;1.80;1.70;;;20.10;99.90;;;;;;5073207;28;20618;-75
2022/08/02 00:59:29;;;;;;;4.07;1.70;;;19.90;99.90;;;;;;5073577;28;20638;-75
2022/08/02 01:01:55;;;;;;;1.80;1.70;;;20.00;99.90;;;;;;5073859;28;20579;-75
2022/08/02 01:04:22;;;;;;;1.87;1.60;;;19.90;99.90;;;;;;5055616;28;20714;-75
2022/08/02 01:06:48;;;;;;;4.90;2.07;;;19.90;99.90;;;;;;5073575;28;20575;-75
2022/08/02 01:09:15;;;;;;;2.43;2.10;;;19.90;99.90;;;;;;5072041;28;20624;-75
2022/08/02 01:11:41;;;;;;;1.97;1.80;;;19.90;99.90;;;;;;5073243;28;20618;-75
2022/08/02 01:14:11;;;;;;;2.23;1.97;;;19.90;99.90;;;;;;5073562;28;20651;-75
2022/08/02 01:16:54;;;;;;;1.60;1.50;;;19.90;99.90;;;;;;5073383;28;20543;-75
2022/08/02 01:19:44;;;;;;;2.10;2.00;;;19.90;99.90;;;;;;5074593;28;20629;-76
2022/08/02 01:22:38;;;;;;;1.80;1.70;;;19.90;99.90;;;;;;5072878;28;20622;-75
2022/08/02 01:25:32;;;;;;;2.30;1.63;;;19.90;99.90;;;;;;5078691;28;20649;-75
2022/08/02 01:28:21;;;;;;;3.47;1.90;;;19.80;99.90;;;;;;5079941;28;20582;-75
2022/08/02 01:30:52;;;;;;;5.73;1.90;;;19.80;99.90;;;;;;5078505;28;20679;-75
2022/08/02 01:33:21;;;;;;;2.00;1.90;;;19.80;99.90;;;;;;5079937;28;20570;-75
2022/08/02 01:35:53;;;;;;;1.97;1.87;;;19.80;99.90;;;;;;5080112;28;20574;-75
2022/08/02 01:38:34;;;;;;;4.40;1.67;;;19.70;99.90;;;;;;5079848;28;21067;-75
2022/08/02 01:41:02;;;;;;;2.00;1.90;;;19.60;99.90;;;;;;5078400;28;20610;-76
2022/08/02 01:43:31;;;;;;;2.07;1.70;;;19.50;99.90;;;;;;5079510;28;21188;-75
2022/08/02 01:46:00;;;;;;;2.43;1.93;;;19.40;99.90;;;;;;5079664;28;20571;-75
2022/08/02 01:48:28;;;;;;;6.03;2.17;;;19.30;99.90;;;;;;5079585;28;20961;-75
2022/08/02 01:50:57;;;;;;;5.27;2.13;;;19.20;99.90;;;;;;5079652;28;20622;-75
2022/08/02 01:53:27;;;;;;;2.90;2.07;;;19.10;99.90;;;;;;5079805;28;20630;-75
2022/08/02 01:55:57;;;;;;;2.07;1.87;;;19.20;99.90;;;;;;5079632;28;20924;-75
2022/08/02 01:58:27;;;;;;;2.23;2.13;;;19.10;99.90;;;;;;5078041;28;20621;-75
2022/08/02 02:00:57;;;;;;;3.63;2.23;;;19.10;99.90;;;;;;5079564;28;20630;-75
2022/08/02 02:03:24;;;;;;;1.87;1.77;;;19.00;99.90;;;;;;5079432;28;20605;-76
2022/08/02 02:05:54;;;;;;;3.20;1.37;;;18.90;99.90;;;;;;5079191;28;20726;-75
2022/08/02 02:08:29;;;;;;;2.40;1.80;;;18.90;99.90;;;;;;5079413;28;20586;-75
2022/08/02 02:10:57;;;;;;;2.80;2.30;;;18.90;99.90;;;;;;5079327;28;20593;-75
2022/08/02 02:13:25;;;;;;;2.23;2.10;;;18.90;99.90;;;;;;5079679;28;20570;-75
2022/08/02 02:15:52;;;;;;;1.87;1.77;;;18.90;99.90;;;;;;5079393;28;20610;-75
2022/08/02 02:18:24;;;;;;;2.27;2.00;;;19.00;99.90;;;;;;5079372;28;20593;-75
2022/08/02 02:20:52;;;;;;;2.17;1.70;;;18.90;99.90;;;;;;5079293;28;20636;-76
2022/08/02 02:23:19;;;;;;;2.20;2.00;;;18.80;99.90;;;;;;5079381;28;20578;-75
2022/08/02 02:25:46;;;;;;;3.30;1.70;;;18.80;99.90;;;;;;5079314;28;20636;-75
2022/08/02 02:28:21;;;;;;;2.10;1.90;;;18.90;99.90;;;;;;5079400;28;20610;-75
2022/08/02 02:30:52;;;;;;;2.33;1.73;;;18.80;99.90;;;;;;5077671;28;21104;-75
2022/08/02 02:33:21;;;;;;;1.93;1.83;;;18.80;99.90;;;;;;5075679;28;20938;-75
2022/08/02 02:35:51;;;;;;;1.90;1.80;;;18.80;99.90;;;;;;5076410;28;20610;-75
2022/08/02 02:38:19;;;;;;;1.60;1.50;;;18.90;99.90;;;;;;5075649;28;20621;-75
2022/08/02 02:40:47;;;;;;;3.20;2.40;;;18.80;99.90;;;;;;5075826;28;20630;-75
2022/08/02 02:43:16;;;;;;;1.83;1.73;;;18.80;99.90;;;;;;5076121;28;20605;-75
2022/08/02 02:45:43;;;;;;;4.40;2.23;;;18.80;99.90;;;;;;5076092;28;21206;-75
2022/08/02 02:48:12;;;;;;;3.57;1.87;;;18.80;99.90;;;;;;5075576;28;20583;-75
2022/08/02 02:50:40;;;;;;;2.60;1.90;;;18.70;99.90;;;;;;5075918;28;20566;-76
2022/08/02 02:53:09;;;;;;;3.27;1.97;;;18.70;99.90;;;;;;5075471;28;20598;-75
2022/08/02 02:55:36;;;;;;;2.27;2.07;;;18.80;99.90;;;;;;5075772;28;21157;-75
2022/08/02 02:58:04;;;;;;;2.90;2.20;;;18.70;99.90;;;;;;5075536;28;20614;-75
2022/08/02 03:03:16;;;;;;;1.93;1.83;;;18.80;99.90;;;;;;5075638;28;20585;-75
2022/08/02 03:05:43;;;;;;;2.40;2.20;;;18.80;99.90;;;;;;5075233;28;21227;-75
2022/08/02 03:08:10;;;;;;;4.87;2.10;;;18.80;99.90;;;;;;5075726;28;21135;-75
2022/08/02 03:10:37;;;;;;;7.80;1.80;;;18.70;99.90;;;;;;5074408;28;20622;-74
2022/08/02 03:13:04;;;;;;;2.90;2.03;;;18.70;99.90;;;;;;5075594;28;20606;-75
2022/08/02 03:15:30;;;;;;;7.70;1.87;;;18.70;99.90;;;;;;5075841;28;20585;-76
2022/08/02 03:17:57;;;;;;;2.30;1.70;;;18.70;99.90;;;;;;5074775;28;20575;-73
2022/08/02 03:20:24;;;;;;;5.73;2.20;;;18.80;99.90;;;;;;5075930;28;20630;-74
2022/08/02 03:22:50;;;;;;;4.83;2.53;;;18.70;99.90;;;;;;5075741;28;20637;-74
2022/08/02 03:25:18;;;;;;;2.40;2.00;;;18.60;99.90;;;;;;5074974;28;20622;-74
2022/08/02 03:27:49;;;;;;;3.53;1.70;;;18.50;99.90;;;;;;5075598;28;20582;-74
2022/08/02 03:30:16;;;;;;;2.60;2.03;;;18.50;99.90;;;;;;5074955;28;21191;-74
2022/08/02 03:32:46;;;;;;;2.07;1.70;;;18.40;99.90;;;;;;5074912;28;20582;-74
2022/08/02 03:35:15;;;;;;;2.20;1.80;;;18.20;99.90;;;;;;5075155;28;20597;-74
2022/08/02 03:37:42;;;;;;;2.37;2.27;;;18.20;99.90;;;;;;5074747;28;20618;-74
2022/08/02 03:40:10;;;;;;;4.57;2.53;;;18.10;99.90;;;;;;5074745;28;20629;-74
2022/08/02 03:42:39;;;;;;;2.40;2.27;;;18.20;99.90;;;;;;5074923;28;20602;-74
2022/08/02 03:45:10;;;;;;;1.80;1.70;;;18.30;99.90;;;;;;5074499;28;20977;-74
2022/08/02 03:47:38;;;;;;;2.53;2.30;;;18.40;99.90;;;;;;5073963;28;21019;-74
2022/08/02 03:50:10;;;;;;;2.40;2.20;;;18.50;99.90;;;;;;5073397;28;20621;-74
2022/08/02 03:52:40;;;;;;;4.37;2.50;;;18.40;99.90;;;;;;5074582;28;20583;-74
2022/08/02 03:55:07;;;;;;;4.80;2.60;;;18.30;99.90;;;;;;5073400;28;20590;-74
2022/08/02 03:57:37;;;;;;;5.37;2.13;;;18.30;99.90;;;;;;5074742;28;20933;-74
2022/08/02 04:00:05;;;;;;;3.33;2.10;;;18.40;99.90;;;;;;5074353;28;20654;-74
2022/08/02 04:02:31;;;;;;;2.80;2.60;;;18.50;99.90;;;;;;5074667;28;20610;-74
2022/08/02 04:04:57;;;;;;;1.97;1.67;;;18.50;99.90;;;;;;5074483;28;20713;-74
2022/08/02 04:07:24;;;;;;;2.30;2.20;;;18.50;99.90;;;;;;5074602;28;21132;-75
2022/08/02 04:09:50;;;;;;;2.70;2.47;;;18.50;99.90;;;;;;5073399;28;20640;-75
2022/08/02 04:12:17;;;;;;;4.17;1.93;;;18.50;99.90;;;;;;5057165;28;20606;-74
2022/08/02 04:14:44;;;;;;;2.60;2.13;;;18.30;99.90;;;;;;5074448;28;20617;-75
2022/08/02 04:17:13;;;;;;;2.10;2.00;;;18.10;99.90;;;;;;5073403;28;20579;-74
2022/08/02 04:19:40;;;;;;;2.40;2.20;;;18.10;99.90;;;;;;5074416;28;20927;-75
2022/08/02 04:22:13;;;;;;;2.20;2.10;;;18.20;99.90;;;;;;5074643;28;20635;-75
2022/08/02 04:24:43;;;;;;;2.60;2.40;;;18.20;99.90;;;;;;5074712;28;20642;-74
2022/08/02 04:27:10;;;;;;;5.77;1.83;;;18.20;99.90;;;;;;5074353;28;20618;-75
2022/08/02 04:29:39;;;;;;;4.30;1.67;;;18.30;99.90;;;;;;5072531;28;20630;-75
2022/08/02 04:32:07;;;;;;;3.20;2.57;;;18.40;99.90;;;;;;5074155;28;20571;-74
2022/08/02 04:34:33;;;;;;;1.97;1.87;;;18.30;99.90;;;;;;5073842;28;20919;-74
2022/08/02 04:37:00;;;;;;;4.63;2.43;;;18.10;99.90;;;;;;5072617;28;21222;-75
2022/08/02 04:39:27;;;;;;;7.07;2.87;;;18.00;99.90;;;;;;5072277;28;21221;-75
2022/08/02 04:41:54;;;;;;;2.30;2.10;;;18.00;99.90;;;;;;5074304;28;20574;-74
2022/08/02 04:44:20;;;;;;;4.17;2.50;;;18.10;99.90;;;;;;5073847;28;21176;-75
2022/08/02 04:46:46;;;;;;;2.50;2.27;;;18.30;99.90;;;;;;5073991;28;20579;-75
2022/08/02 04:49:13;;;;;;;3.67;3.37;;;18.50;99.90;;;;;;5073974;28;20582;-75
2022/08/02 04:51:41;;;;;;;2.50;2.30;;;18.60;99.90;;;;;;5073973;28;20671;-75
2022/08/02 04:54:10;;;;;;;6.10;5.53;;;18.70;99.90;;;;;;5072996;28;20574;-75
2022/08/02 04:56:39;;;;;;;2.67;2.47;;;18.90;99.90;;;;;;5073872;28;20594;-75
2022/08/02 04:59:06;;;;;;;2.23;2.03;;;19.10;99.90;;;;;;5073873;28;20592;-74
2022/08/02 05:01:33;;;;;;;2.10;2.00;;;19.00;99.90;;;;;;5073755;28;20687;-75
2022/08/02 05:04:00;;;;;;;2.63;2.40;;;18.90;99.90;;;;;;5073466;28;20578;-75
2022/08/02 05:06:26;;;;;;;8.53;2.77;;;18.80;99.90;;;;;;5073804;28;20582;-75
2022/08/02 05:08:53;;;;;;;2.73;2.53;;;18.80;99.90;;;;;;5072089;28;20618;-75
2022/08/02 05:11:20;;;;;;;2.87;2.67;;;18.90;99.90;;;;;;5073548;28;21002;-75
2022/08/02 05:13:47;;;;;;;5.27;2.80;;;18.90;99.90;;;;;;5073357;28;20959;-76
2022/08/02 05:16:13;;;;;;;2.70;2.50;;;19.00;99.90;;;;;;5073777;28;20586;-75
2022/08/02 05:18:40;;;;;;;3.77;2.43;;;19.00;99.90;;;;;;5073502;28;20945;-75
2022/08/02 05:21:07;;;;;;;6.10;2.50;;;19.00;99.90;;;;;;5073534;28;20669;-75
2022/08/02 05:23:33;;;;;;;2.73;2.57;;;19.20;99.90;;;;;;5073154;28;20915;-75
2022/08/02 05:25:59;;;;;;;3.00;2.33;;;19.40;99.90;;;;;;5073561;28;20724;-75
2022/08/02 05:28:26;;;;;;;5.17;2.70;;;19.50;99.90;;;;;;5073727;28;20582;-75
2022/08/02 05:30:52;;;;;;;4.03;3.03;;;19.80;99.90;;;;;;5071986;28;20608;-75
2022/08/02 05:33:19;;;;;;;4.50;2.43;;;19.90;99.90;;;;;;5073250;28;20592;-74
2022/08/02 05:35:45;;;;;;;7.20;2.70;;;20.00;99.90;;;;;;5073308;28;20640;-74
2022/08/02 05:38:12;;;;;;;2.93;2.63;;;20.10;99.90;;;;;;5072336;28;20679;-74
2022/08/02 05:40:38;;;;;;;3.40;3.10;;;20.20;99.90;;;;;;5073497;28;20638;-74
2022/08/02 05:43:12;;;;;;;2.93;2.70;;;20.10;99.90;;;;;;5073691;28;20619;-74
2022/08/02 05:45:39;;;;;;;2.60;2.50;;;19.80;99.90;;;;;;5073450;28;20582;-74
2022/08/02 05:48:06;;;;;;;2.90;2.70;;;19.80;99.90;;;;;;5073353;28;20567;-74
2022/08/02 05:50:38;;;;;;;2.67;2.57;;;19.90;99.90;;;;;;5073421;28;20574;-75
2022/08/02 05:53:18;;;;;;;2.93;2.80;;;19.90;99.90;;;;;;5073413;28;20653;-74
2022/08/02 05:55:56;;;;;;;3.20;3.10;;;20.10;99.90;;;;;;5073084;28;20754;-74
2022/08/02 05:58:44;;;;;;;4.00;3.60;;;20.40;99.90;;;;;;5073747;28;20602;-74
2022/08/02 06:01:14;;;;;;;6.45;4.03;;;20.60;99.90;;;;;;5073672;28;20793;-76
2022/08/02 06:03:51;;;;;;;4.57;4.20;;;21.00;99.90;;;;;;5073334;28;20184;-72
2022/08/02 06:06:24;;;;;;;3.73;3.53;;;21.20;99.90;;;;;;5072330;28;21238;-70
2022/08/02 06:09:02;;;;;;;10.50;3.90;;;21.40;99.90;;;;;;5083358;28;20646;-74
2022/08/02 06:11:37;;;;;;;4.53;3.97;;;21.60;99.90;;;;;;5079194;28;20640;-74
2022/08/02 06:14:06;;;;;;;7.40;3.47;;;21.60;99.90;;;;;;5080529;28;20995;-74
2022/08/02 06:16:33;;;;;;;4.50;4.10;;;21.70;99.90;;;;;;5078452;28;21233;-74
2022/08/02 06:19:01;;;;;;;4.17;3.77;;;21.70;99.90;;;;;;5077621;28;20852;-74
2022/08/02 06:21:28;;;;;;;3.90;3.70;;;21.70;99.90;;;;;;5077943;28;20658;-75
2022/08/02 06:23:57;;;;;;;3.97;3.67;;;21.80;99.90;;;;;;5082232;28;21204;-74
2022/08/02 06:26:25;;;;;;;5.33;3.57;;;21.80;99.90;;;;;;5082484;28;20618;-75
2022/08/02 06:28:52;;;;;;;4.10;3.80;;;21.90;99.90;;;;;;5084339;28;20657;-74
2022/08/02 06:31:20;;;;;;;5.20;4.10;;;22.10;99.90;;;;;;5090260;28;20594;-74
2022/08/02 06:33:46;;;;;;;9.60;4.10;;;22.20;99.90;;;;;;5079931;28;20555;-73
2022/08/02 06:36:30;;;;;;;4.40;4.00;;;22.10;99.90;;;;;;5076597;28;20585;-74
2022/08/02 06:39:08;;;;;;;5.33;3.40;;;22.20;99.90;;;;;;5078321;28;21060;-71
2022/08/02 06:41:41;;;;;;;4.37;4.07;;;22.20;99.90;;;;;;5084990;28;20626;-72
2022/08/02 06:44:08;;;;;;;4.90;3.87;;;22.30;99.90;;;;;;5084334;28;20675;-77
2022/08/02 06:46:34;;;;;;;3.90;3.70;;;22.40;99.90;;;;;;5079347;28;20632;-74
2022/08/02 06:49:04;;;;;;;4.27;3.93;;;22.50;99.90;;;;;;5084935;28;20574;-76
2022/08/02 06:51:32;;;;;;;13.27;4.00;;;22.80;99.90;;;;;;5078193;28;20639;-74
2022/08/02 06:53:58;;;;;;;4.87;4.47;;;22.70;99.90;;;;;;5077958;28;20579;-74
2022/08/02 06:56:25;;;;;;;4.50;4.10;;;22.80;99.90;;;;;;5075914;28;20625;-75
2022/08/02 06:58:51;;;;;;;4.40;3.70;;;22.90;99.90;;;;;;5077016;28;20613;-75
2022/08/02 07:01:18;;;;;;;4.37;3.50;;;23.00;99.90;;;;;;5079557;28;20626;-75
2022/08/02 07:03:45;;;;;;;4.03;3.63;;;23.10;99.90;;;;;;5083611;28;20625;-74
2022/08/02 07:06:12;;;;;;;5.80;4.63;;;23.00;99.90;;;;;;5078384;28;20645;-74
2022/08/02 07:08:39;;;;;;;8.10;4.60;;;23.00;99.90;;;;;;5078595;28;20579;-75
2022/08/02 07:11:09;;;;;;;6.00;4.30;;;23.20;99.90;;;;;;5074817;28;21122;-75
2022/08/02 07:13:36;;;;;;;5.70;3.90;;;23.50;99.90;;;;;;5074484;28;20622;-74
2022/08/02 07:16:03;;;;;;;7.40;4.00;;;23.50;99.90;;;;;;5075560;28;20586;-75
2022/08/02 07:18:30;;;;;;;6.63;4.43;;;23.20;99.90;;;;;;5075169;28;20653;-74
2022/08/02 07:20:56;;;;;;;4.67;4.33;;;23.30;99.90;;;;;;5077054;28;20638;-74
2022/08/02 07:23:23;;;;;;;3.87;3.67;;;23.50;99.90;;;;;;5080951;28;20575;-76
2022/08/02 07:25:49;;;;;;;4.90;3.23;;;23.50;99.90;;;;;;5045136;28;20637;-75
2022/08/02 07:28:16;;;;;;;4.60;4.20;;;23.50;99.90;;;;;;5077184;28;20623;-76
2022/08/02 07:30:42;;;;;;;5.20;4.20;;;23.70;99.90;;;;;;5075271;28;20618;-75
2022/08/02 07:33:09;;;;;;;8.03;4.23;;;23.90;99.90;;;;;;5082844;28;20587;-75
2022/08/02 07:35:36;;;;;;;4.73;4.20;;;23.90;99.90;;;;;;5078912;28;21122;-77
2022/08/02 07:38:03;;;;;;;4.33;3.93;;;24.00;99.90;;;;;;5077359;28;20607;-76
2022/08/02 07:40:29;;;;;;;4.27;3.63;;;24.00;99.90;;;;;;5077235;28;20630;-75
2022/08/02 07:42:56;;;;;;;5.37;4.13;;;24.10;99.90;;;;;;5079195;28;21004;-76
2022/08/02 07:45:23;;;;;;;3.90;3.70;;;24.10;99.90;;;;;;5079151;28;20597;-77
2022/08/02 07:47:51;;;;;;;6.40;4.60;;;24.30;99.90;;;;;;5082693;28;20578;-76
2022/08/02 07:50:19;;;;;;;5.30;4.20;;;24.20;99.90;;;;;;5080396;28;20582;-75
2022/08/02 07:52:46;;;;;;;4.43;3.90;;;24.40;99.90;;;;;;5084651;28;20617;-75
2022/08/02 07:55:14;;;;;;;4.57;4.27;;;24.30;99.90;;;;;;5086852;28;20646;-75
2022/08/02 07:57:42;;;;;;;6.40;3.97;;;24.20;99.90;;;;;;5081506;28;20621;-74
2022/08/02 08:00:09;;;;;;;5.40;5.00;;;24.50;99.90;;;;;;5082252;28;20619;-74
2022/08/02 08:02:36;;;;;;;4.33;4.13;;;24.80;99.90;;;;;;5076385;28;21188;-76
2022/08/02 08:05:03;;;;;;;3.47;3.27;;;24.80;99.90;;;;;;5077898;28;20650;-76
2022/08/02 08:07:29;;;;;;;5.67;3.20;;;24.50;99.90;;;;;;5076143;28;20575;-75
2022/08/02 08:09:57;;;;;;;3.57;3.37;;;24.50;99.90;;;;;;5074238;28;20610;-75
2022/08/02 08:12:24;;;;;;;4.67;3.83;;;24.90;99.90;;;;;;5075537;28;20570;-76
2022/08/02 08:14:50;;;;;;;3.80;3.60;;;24.90;99.90;;;;;;5075576;28;20590;-74
2022/08/02 08:17:17;;;;;;;5.87;3.00;;;25.10;99.90;;;;;;5077269;28;20583;-76
2022/08/02 08:19:43;;;;;;;4.33;3.47;;;25.10;99.90;;;;;;5074695;28;21039;-75
2022/08/02 08:22:10;;;;;;;8.00;3.43;;;24.80;99.90;;;;;;5075908;28;20637;-74
2022/08/02 08:24:37;;;;;;;3.30;3.10;;;25.10;99.90;;;;;;5080235;28;20737;-74
2022/08/02 08:27:05;;;;;;;3.70;3.40;;;24.90;99.90;;;;;;5078334;28;20593;-74
2022/08/02 08:29:31;;;;;;;5.90;3.23;;;25.20;99.90;;;;;;5074309;28;20618;-74
2022/08/02 08:31:58;;;;;;;6.23;3.10;;;25.20;99.90;;;;;;5074430;28;21158;-74
2022/08/02 08:34:26;;;;;;;8.40;3.70;;;25.40;99.90;;;;;;5074573;28;20579;-75
2022/08/02 08:36:52;;;;;;;3.20;3.00;;;25.70;99.90;;;;;;5073363;28;20683;-76
2022/08/02 08:39:19;;;;;;;4.50;2.77;;;26.00;99.90;;;;;;5076443;28;20589;-75
2022/08/02 08:41:45;;;;;;;3.90;3.60;;;26.10;99.90;;;;;;5075015;28;21017;-75
2022/08/02 08:44:12;;;;;;;3.37;3.20;;;25.80;99.90;;;;;;5076516;28;20575;-74
2022/08/02 08:46:41;;;;;;;3.40;3.20;;;25.70;99.90;;;;;;5074944;28;20551;-75
2022/08/02 08:49:16;;;;;;;4.20;2.87;;;25.70;99.90;;;;;;5076730;28;20578;-74
2022/08/02 08:51:43;;;;;;;4.07;3.07;;;25.60;99.90;;;;;;5074565;28;20632;-72
2022/08/02 08:54:14;;;;;;;3.37;3.00;;;25.60;99.90;;;;;;5074488;28;20579;-74
2022/08/02 08:56:42;;;;;;;3.20;2.90;;;26.10;99.90;;;;;;5074314;28;21049;-75
2022/08/02 08:59:09;;;;;;;3.97;3.60;;;26.40;99.90;;;;;;5074076;28;20633;-74
2022/08/02 09:01:35;;;;;;;3.77;3.10;;;25.90;99.90;;;;;;5073525;28;20626;-77
2022/08/02 09:04:02;;;;;;;7.50;3.00;;;25.90;99.90;;;;;;5073692;28;21227;-77
2022/08/02 09:06:28;;;;;;;3.07;2.97;;;26.30;99.90;;;;;;5073500;28;20585;-77
2022/08/02 09:08:55;;;;;;;3.97;3.23;;;26.10;99.90;;;;;;5074110;28;20567;-77
2022/08/02 09:11:25;;;;;;;7.53;3.13;;;26.10;99.90;;;;;;5072439;28;20578;-75
2022/08/02 09:13:59;;;;;;;3.70;3.40;;;25.80;99.90;;;;;;5073790;28;20601;-74
2022/08/02 09:16:34;;;;;;;3.33;3.20;;;25.60;99.90;;;;;;5073311;28;20575;-77
2022/08/02 09:19:24;;;;;;;7.03;3.40;;;26.20;99.90;;;;;;5071900;28;21096;-76
2022/08/02 09:22:06;;;;;;;3.07;2.90;;;26.60;99.90;;;;;;5072779;28;20637;-75
2022/08/02 09:24:47;;;;;;;3.50;3.20;;;26.80;99.90;;;;;;5071809;28;20973;-75
2022/08/02 09:27:16;;;;;;;4.97;3.20;;;26.50;99.90;;;;;;5072126;28;20650;-76
2022/08/02 09:29:53;;;;;;;3.53;3.33;;;26.50;99.90;;;;;;5073132;28;20575;-76
2022/08/02 09:32:20;;;;;;;4.10;3.30;;;26.20;99.90;;;;;;5073455;28;20647;-77
2022/08/02 09:34:51;;;;;;;3.93;3.53;;;26.60;99.90;;;;;;5073575;28;20614;-76
2022/08/02 09:37:29;;;;;;;3.93;3.60;;;26.80;99.90;;;;;;5073083;28;20948;-77
2022/08/02 09:40:02;;;;;;;3.57;3.27;;;26.90;99.90;;;;;;5071968;28;20923;-77
2022/08/02 09:42:28;;;;;;;3.53;2.70;;;26.50;99.90;;;;;;5077116;28;21166;-75
2022/08/02 09:44:57;;;;;;;4.43;2.80;;;26.80;99.90;;;;;;5077222;28;20578;-77
2022/08/02 09:47:25;;;;;;;2.90;2.70;;;26.70;99.90;;;;;;5077486;28;20666;-77
2022/08/02 09:49:56;;;;;;;4.40;2.77;;;27.00;99.90;;;;;;5075601;28;20610;-77
2022/08/02 09:52:32;;;;;;;3.13;2.90;;;27.10;99.90;;;;;;5079133;28;21101;-72
2022/08/02 09:55:05;;;;;;;3.20;3.00;;;26.80;99.90;;;;;;5078363;28;20635;-73
2022/08/02 09:57:37;;;;;;;3.53;3.33;;;26.70;99.90;;;;;;5080529;28;20595;-73
2022/08/02 10:00:10;;;;;;;6.37;3.60;;;27.00;99.90;;;;;;5080195;28;20650;-73
2022/08/02 10:02:37;;;;;;;3.57;3.37;;;27.10;99.90;;;;;;5079316;28;20638;-73
2022/08/02 10:05:04;;;;;;;3.10;3.00;;;27.70;99.90;;;;;;5078184;28;20646;-73
2022/08/02 10:07:31;;;;;;;3.30;3.10;;;28.10;99.90;;;;;;5078417;28;20571;-73
2022/08/02 10:09:57;;;;;;;3.17;2.97;;;28.20;99.90;;;;;;5078414;28;20614;-73
2022/08/02 10:12:24;;;;;;;3.70;3.50;;;27.80;99.90;;;;;;5078427;28;20606;-73
2022/08/02 10:14:51;;;;;;;2.73;2.63;;;28.10;99.90;;;;;;5078488;28;20629;-74
2022/08/02 10:17:18;;;;;;;12.37;3.33;;;28.30;99.90;;;;;;5077070;28;20625;-74
2022/08/02 10:19:47;;;;;;;3.57;2.97;;;28.30;99.90;;;;;;5078159;28;20593;-73
2022/08/02 10:22:15;;;;;;;4.87;3.30;;;28.50;99.90;;;;;;5076528;28;20666;-73
2022/08/02 10:24:43;;;;;;;3.40;3.07;;;28.20;99.90;;;;;;5077556;28;20638;-73
2022/08/02 10:27:18;;;;;;;7.50;3.17;;;28.50;99.90;;;;;;5078172;28;20625;-73
2022/08/02 10:29:47;;;;;;;3.57;3.20;;;28.80;99.90;;;;;;5077453;28;20629;-73
2022/08/02 10:32:28;;;;;;;3.40;3.10;;;28.40;99.90;;;;;;5077569;28;20612;-73
2022/08/02 10:35:04;;;;;;;3.47;3.27;;;28.60;99.90;;;;;;5077619;28;20566;-73
2022/08/02 10:37:35;;;;;;;3.27;2.93;;;28.20;99.90;;;;;;5077322;28;20600;-74
2022/08/02 10:40:01;;;;;;;9.53;3.40;;;28.80;99.90;;;;;;5076928;28;20617;-74
2022/08/02 10:42:47;;;;;;;6.27;3.23;;;29.00;99.90;;;;;;5077479;28;20622;-74
2022/08/02 10:45:16;;;;;;;3.03;2.83;;;28.60;99.90;;;;;;5076713;28;20570;-73
2022/08/02 10:48:10;;;;;;;3.13;2.90;;;28.70;99.90;;;;;;5076634;28;20578;-72
2022/08/02 10:50:46;;;;;;;3.80;3.43;;;28.60;99.90;;;;;;5076964;28;20614;-73
2022/08/02 10:53:18;;;;;;;2.97;2.87;;;29.00;99.90;;;;;;5075469;28;20610;-72
2022/08/02 10:55:45;;;;;;;6.10;3.23;;;29.20;99.90;;;;;;5076999;28;21076;-72
2022/08/02 10:58:20;;;;;;;3.03;2.70;;;29.70;99.90;;;;;;5075599;28;20620;-72
2022/08/02 11:00:48;;;;;;;3.57;2.47;;;30.00;99.90;;;;;;5078099;28;20630;-73
2022/08/02 11:03:35;;;;;;;4.70;2.90;;;30.00;99.90;;;;;;5078751;28;20582;-72
2022/08/02 11:06:10;;;;;;;2.70;2.60;;;29.90;99.90;;;;;;5078488;28;20630;-72
2022/08/02 11:08:36;;;;;;;10.30;6.50;;;29.90;99.90;;;;;;5076819;28;21052;-74
2022/08/02 11:11:08;;;;;;;11.23;5.80;;;29.90;99.90;;;;;;5077520;28;20567;-73
2022/08/02 11:14:02;;;;;;;3.67;3.10;;;29.40;99.90;;;;;;5075602;28;20574;-74
2022/08/02 11:16:53;;;;;;;3.50;3.10;;;29.30;99.90;;;;;;5074637;28;20648;-74
2022/08/02 11:19:20;;;;;;;3.43;3.27;;;28.40;99.90;;;;;;5077792;28;20566;-75
2022/08/02 11:22:08;;;;;;;3.23;3.03;;;28.40;99.90;;;;;;5075422;28;20634;-74
2022/08/02 11:24:36;;;;;;;2.90;2.70;;;29.90;99.90;;;;;;5074955;28;20671;-74
2022/08/02 11:27:05;;;;;;;3.40;3.20;;;29.90;99.90;;;;;;5075738;28;20578;-73
2022/08/02 11:29:39;;;;;;;3.07;2.87;;;30.30;99.90;;;;;;5075236;28;20587;-75
2022/08/02 11:32:13;;;;;;;2.90;2.80;;;30.20;99.90;;;;;;5076695;28;21164;-74
2022/08/02 11:34:41;;;;;;;3.03;2.83;;;31.20;99.90;;;;;;5075740;28;20574;-75
2022/08/02 11:37:09;;;;;;;3.10;2.90;;;31.70;99.90;;;;;;5077048;28;21004;-73
2022/08/02 11:39:35;;;;;;;3.00;2.90;;;31.60;99.90;;;;;;5076199;28;20609;-76
2022/08/02 11:42:02;;;;;;;2.80;2.70;;;31.20;99.90;;;;;;5075456;28;20658;-75
2022/08/02 11:44:39;;;;;;;3.30;3.00;;;31.80;99.90;;;;;;5074430;28;20571;-76
2022/08/02 11:47:07;;;;;;;3.60;3.30;;;32.80;99.90;;;;;;5060702;28;21129;-75
2022/08/02 11:49:33;;;;;;;3.30;3.10;;;33.20;99.90;;;;;;5075403;28;21181;-74
2022/08/02 11:52:05;;;;;;;4.70;2.80;;;33.30;99.90;;;;;;5075458;28;20630;-74
2022/08/02 11:54:34;;;;;;;5.47;2.80;;;33.10;99.90;;;;;;5073303;28;20640;-72
2022/08/02 11:57:19;;;;;;;2.97;2.80;;;33.40;99.90;;;;;;5074530;28;20622;-72
2022/08/02 11:59:48;;;;;;;3.33;3.13;;;34.00;99.90;;;;;;5074132;28;20930;-72
2022/08/02 12:02:16;;;;;;;3.10;3.00;;;33.40;99.90;;;;;;5074013;28;20684;-73
2022/08/02 12:04:42;;;;;;;3.17;2.83;;;32.10;99.90;;;;;;5074126;28;20642;-73
2022/08/02 12:07:09;;;;;;;3.20;3.10;;;30.70;99.90;;;;;;5073851;28;20973;-73
2022/08/02 12:09:36;;;;;;;3.43;3.23;;;29.70;99.90;;;;;;5074187;28;20943;-73
2022/08/02 12:12:03;;;;;;;3.43;3.23;;;30.50;99.90;;;;;;5074066;28;20579;-73
2022/08/02 12:14:31;;;;;;;2.90;2.70;;;31.50;99.90;;;;;;5073981;28;20641;-73
2022/08/02 12:19:44;;;;;;;3.00;2.80;;;32.30;99.90;;;;;;5074087;28;20575;-73
2022/08/02 12:22:18;;;;;;;2.63;2.53;;;32.10;99.90;;;;;;5073841;28;20636;-73
2022/08/02 12:24:50;;;;;;;2.70;2.60;;;31.90;99.90;;;;;;5073646;28;20641;-73
2022/08/02 12:27:31;;;;;;;3.20;3.00;;;32.80;99.90;;;;;;5073669;28;20604;-74
2022/08/02 12:30:00;;;;;;;3.53;3.10;;;34.00;99.90;;;;;;5073655;28;20618;-73
2022/08/02 12:32:27;;;;;;;2.93;2.83;;;34.30;99.90;;;;;;5073552;28;20641;-73
2022/08/02 12:35:11;;;;;;;2.70;2.50;;;34.20;99.90;;;;;;5073469;28;20622;-73
2022/08/02 12:37:41;;;;;;;2.97;2.73;;;33.70;99.90;;;;;;5073499;28;21040;-73
2022/08/02 12:40:25;;;;;;;2.50;2.40;;;33.60;99.90;;;;;;5073440;28;20614;-73
2022/08/02 12:43:00;;;;;;;3.00;2.60;;;33.60;99.90;;;;;;5073089;28;20637;-73
2022/08/02 12:45:29;;;;;;;2.70;2.50;;;34.40;99.90;;;;;;5073492;28;20897;-73
2022/08/02 12:47:57;;;;;;;3.67;2.93;;;35.40;99.90;;;;;;5073725;28;20585;-73
2022/08/02 12:50:33;;;;;;;3.20;2.70;;;34.90;99.90;;;;;;5073612;28;20626;-73
2022/08/02 12:53:13;;;;;;;2.87;2.77;;;35.00;99.90;;;;;;5073565;28;20617;-73
2022/08/02 12:55:56;;;;;;;2.83;2.70;;;34.30;99.90;;;;;;5073515;28;20631;-73
2022/08/02 12:58:22;;;;;;;4.90;2.70;;;34.90;99.90;;;;;;5073304;28;20578;-73
2022/08/02 13:00:55;;;;;;;2.50;2.40;;;34.50;99.90;;;;;;5073444;28;20698;-73
2022/08/02 13:03:23;;;;;;;2.97;2.80;;;34.80;99.90;;;;;;5073003;28;20634;-74